Grissom AFB, IN

5:04 PM EST on February 23, 2017 (GMT -0500)
Grissom Air Reserve Base

Weather History for KGUS - January, 2013

Change the Weather History Date:

Thursday, January 31, 2013

  Actual Average Record
Temperature  
Mean Temperature 17 °F -  
Max Temperature 26 °F 32 °F 58 °F (2012)
Min Temperature 8 °F 19 °F -11 °F (2004)
Degree Days  
Heating Degree Days 48    
Moisture  
Dew Point 14 °F    
Average Humidity 80    
Maximum Humidity 93    
Minimum Humidity 68    
Precipitation  
Precipitation 0.05 in - - ()
Sea Level Pressure  
Sea Level Pressure 29.84 in    
Wind  
Wind Speed 25 mph (WNW)    
Max Wind Speed 31 mph    
Max Gust Speed 40 mph    
Visibility 7 miles    
Events Rain , Snow    
Averages and records for this station are not official NWS values.
T = Trace of Precipitation, MM = Missing Value Source: NWS Daily Summary

Daily Weather History Graph

Daily Weather History Graph

Search for Another Location

Airport or City:

Trip Planner

Search our weather history database for the weather conditions in past years. The results will help you decide how hot, cold, wet, or windy it might be!

Date:

Astronomy

Jan. 31, 2013 Rise Set
Actual Time 7:55 AM EST 6:01 PM EST
Civil Twilight 7:26 AM EST 6:30 PM EST
Nautical Twilight 6:53 AM EST 7:03 PM EST
Astronomical Twilight 6:21 AM EST 7:35 PM EST
Moon 11:05 PM EST (1/31) 9:52 AM EST (1/31)
Length of Visible Light 11h 04m
Length of Day
10h 06m
Waning Gibbous, 80% of the Moon is Illuminated
Jan 31
Waning Gibbous
Feb 3
Last Quarter
Feb 10
New
Feb 17
First Quarter
Feb 25
Full

Hourly Weather History & Observations

Time (EST) Temp. Windchill Dew Point Humidity Pressure Visibility Wind Dir Wind Speed Gust Speed Precip Events Conditions
12:14 AM 26.6 °F 10.0 °F 23.0 °F 86% 29.58 in 7.0 mi West 31.1 mph 39.1 mph N/A   Overcast
12:33 AM 24.8 °F 9.0 °F 23.0 °F 93% 29.60 in 8.0 mi West 25.3 mph 39.1 mph N/A   Overcast
12:35 AM 24.8 °F 8.7 °F 21.2 °F 86% 29.60 in 8.0 mi West 26.5 mph 39.1 mph N/A   Overcast
12:41 AM 24.8 °F 8.7 °F 21.2 °F 86% 29.60 in 9.0 mi West 26.5 mph 39.1 mph N/A   Overcast
12:43 AM 24.8 °F 7.9 °F 21.2 °F 86% 29.60 in 9.0 mi West 29.9 mph 39.1 mph N/A   Overcast
12:55 AM 24.8 °F 8.7 °F 20.5 °F 84% 29.61 in 10.0 mi West 26.5 mph 39.1 mph 0.01 in   Overcast
1:19 AM 24.8 °F 8.4 °F 19.4 °F 80% 29.62 in 9.0 mi West 27.6 mph 36.8 mph N/A Snow Light Snow
1:43 AM 23.0 °F 6.0 °F 19.4 °F 86% 29.64 in 5.0 mi West 27.6 mph 40.3 mph N/A Snow Light Snow
1:55 AM 23.0 °F 6.0 °F 19.8 °F 87% 29.65 in 6.0 mi West 27.6 mph 39.1 mph 0.00 in Snow Light Snow
1:56 AM 23.0 °F 6.3 °F 19.4 °F 86% 29.65 in 7.0 mi West 26.5 mph 39.1 mph N/A Snow Light Snow
1:57 AM 23.0 °F 6.6 °F 19.4 °F 86% 29.65 in 7.0 mi West 25.3 mph 39.1 mph N/A Snow Light Snow
2:00 AM 23.0 °F 5.4 °F 19.4 °F 86% 29.65 in 8.0 mi West 29.9 mph 34.5 mph N/A Snow Light Snow
2:25 AM 23.0 °F 6.3 °F 17.6 °F 80% 29.67 in 10.0 mi West 26.5 mph 38.0 mph N/A   Overcast
2:32 AM 21.2 °F 4.2 °F 17.6 °F 86% 29.67 in 10.0 mi West 25.3 mph 40.3 mph N/A   Overcast
2:49 AM 21.2 °F 4.9 °F 17.6 °F 86% 29.68 in 10.0 mi West 23.0 mph 38.0 mph N/A Snow Light Snow
2:55 AM 22.1 °F 7.6 °F 17.8 °F 83% 29.69 in 10.0 mi West 18.4 mph 34.5 mph 0.02 in Snow Light Snow
3:02 AM 23.0 °F 6.6 °F 17.6 °F 80% 29.69 in 9.0 mi West 25.3 mph 31.1 mph N/A Snow Light Snow
3:08 AM 23.0 °F 6.6 °F 17.6 °F 80% 29.69 in 10.0 mi West 25.3 mph 31.1 mph N/A Snow Light Snow
3:14 AM 23.0 °F 7.6 °F 17.6 °F 80% 29.69 in 10.0 mi West 21.9 mph 38.0 mph N/A   Overcast
3:15 AM 23.0 °F 7.2 °F 17.6 °F 80% 29.69 in 10.0 mi West 23.0 mph 38.0 mph N/A Rain Light Freezing Rain
3:27 AM 23.0 °F 5.7 °F 19.4 °F 86% 29.70 in 6.0 mi West 28.8 mph 34.5 mph N/A Snow Light Snow
3:30 AM 23.0 °F 6.0 °F 17.6 °F 80% 29.70 in 5.0 mi West 27.6 mph 34.5 mph N/A Snow Light Snow
3:35 AM 23.0 °F 6.3 °F 17.6 °F 80% 29.70 in 4.0 mi West 26.5 mph 34.5 mph N/A Snow Light Snow
3:45 AM 21.2 °F 3.9 °F 19.4 °F 93% 29.70 in 4.0 mi West 26.5 mph 38.0 mph N/A Snow Light Snow
3:46 AM 21.2 °F 4.2 °F 19.4 °F 93% 29.70 in 5.0 mi West 25.3 mph 38.0 mph N/A Snow Light Snow
3:55 AM 21.9 °F 5.5 °F 17.4 °F 83% 29.70 in 10.0 mi West 24.2 mph 34.5 mph 0.00 in Snow Light Snow
4:08 AM 21.2 °F 4.2 °F 17.6 °F 86% 29.70 in 5.0 mi West 25.3 mph 33.4 mph N/A Snow Light Snow
4:09 AM 21.2 °F 4.5 °F 17.6 °F 86% 29.71 in 4.0 mi West 24.2 mph 32.2 mph N/A Snow Light Snow
4:11 AM 21.2 °F 3.9 °F 19.4 °F 93% 29.70 in 2.5 mi West 26.5 mph 32.2 mph N/A Snow Light Snow
4:14 AM 21.2 °F 4.2 °F 19.4 °F 93% 29.71 in 2.0 mi West 25.3 mph 32.2 mph N/A Snow Light Snow
4:15 AM 21.2 °F 4.5 °F 19.4 °F 93% 29.71 in 2.0 mi West 24.2 mph 32.2 mph N/A Snow Light Snow
4:19 AM 21.2 °F 3.0 °F 17.6 °F 86% 29.71 in 2.0 mi West 29.9 mph 35.7 mph N/A Snow Light Snow
4:21 AM 21.2 °F 3.3 °F 17.6 °F 86% 29.71 in 3.0 mi West 28.8 mph 36.8 mph N/A Snow Light Snow
4:25 AM 21.2 °F 3.0 °F 15.8 °F 80% 29.71 in 5.0 mi West 29.9 mph 40.3 mph N/A Snow Light Snow
4:31 AM 21.2 °F 2.7 °F 15.8 °F 80% 29.71 in 10.0 mi West 31.1 mph 40.3 mph N/A Rain Light Freezing Rain
4:53 AM 19.4 °F 1.8 °F 15.8 °F 86% 29.73 in 4.0 mi West 25.3 mph 33.4 mph N/A Snow Light Snow
4:55 AM 20.1 °F 2.4 °F 16.0 °F 84% 29.74 in 2.5 mi West 26.5 mph 33.4 mph 0.02 in Snow Light Snow
4:57 AM 19.4 °F 0.8 °F 15.8 °F 86% 29.74 in 2.0 mi West 28.8 mph 36.8 mph N/A Snow Light Snow
5:04 AM 19.4 °F 0.8 °F 12.2 °F 74% 29.74 in 3.0 mi West 28.8 mph 38.0 mph N/A Snow Light Snow
5:06 AM 19.4 °F 0.5 °F 12.2 °F 74% 29.74 in 6.0 mi West 29.9 mph 38.0 mph N/A Snow Light Snow
5:15 AM 17.6 °F 0.9 °F 14.0 °F 86% 29.75 in 8.0 mi WNW 20.7 mph 34.5 mph N/A Snow Light Snow
5:18 AM 17.6 °F -0.3 °F 14.0 °F 86% 29.75 in 5.0 mi WNW 24.2 mph 34.5 mph N/A Snow Light Snow
5:19 AM 17.6 °F -0.6 °F 14.0 °F 86% 29.75 in 5.0 mi WNW 25.3 mph 34.5 mph N/A Snow Light Snow
5:22 AM 17.6 °F 0.9 °F 14.0 °F 86% 29.75 in 4.0 mi West 20.7 mph 32.2 mph N/A Snow Light Snow
5:36 AM 17.6 °F 1.3 °F 14.0 °F 86% 29.75 in 5.0 mi West 19.6 mph 26.5 mph N/A Snow Light Snow
5:55 AM 18.9 °F 1.0 °F 14.4 °F 83% 29.75 in 5.0 mi West 25.3 mph 28.8 mph 0.00 in Snow Light Snow
5:56 AM 19.4 °F 2.1 °F 14.0 °F 80% 29.75 in 4.0 mi West 24.2 mph 28.8 mph N/A Snow Light Snow
5:57 AM 19.4 °F 1.8 °F 14.0 °F 80% 29.75 in 4.0 mi West 25.3 mph 32.2 mph N/A Snow Light Snow
6:05 AM 19.4 °F 2.1 °F 14.0 °F 80% 29.76 in 4.0 mi West 24.2 mph 33.4 mph N/A Snow Light Snow
6:07 AM 19.4 °F 1.8 °F 14.0 °F 80% 29.75 in 5.0 mi West 25.3 mph 33.4 mph N/A Snow Light Snow
6:55 AM 18.0 °F -0.2 °F 13.1 °F 81% 29.78 in 5.0 mi West 25.3 mph 34.5 mph 0.00 in Snow Light Snow
7:55 AM 18.1 °F 2.4 °F 13.5 °F 82% 29.81 in 10.0 mi West 18.4 mph - 0.00 in Snow Light Snow
8:38 AM 19.4 °F 4.5 °F 15.8 °F 86% 29.82 in 3.0 mi West 17.3 mph - N/A Snow Light Snow
8:55 AM 20.1 °F 4.6 °F 16.9 °F 87% 29.83 in 5.0 mi West 19.6 mph - 0.00 in Snow Light Snow
9:55 AM 22.3 °F 8.2 °F 18.5 °F 85% 29.84 in 5.0 mi West 17.3 mph - 0.00 in Snow Light Snow
10:10 AM 23.0 °F 7.6 °F 17.6 °F 80% 29.84 in 7.0 mi West 21.9 mph 28.8 mph N/A Snow Light Snow
10:33 AM 23.0 °F 9.6 °F 17.6 °F 80% 29.84 in 10.0 mi West 16.1 mph 27.6 mph N/A Snow Light Snow
10:55 AM 23.4 °F 7.7 °F 18.0 °F 80% 29.86 in 1.5 mi West 23.0 mph 29.9 mph 0.00 in Snow Snow
10:57 AM 23.0 °F 7.6 °F 17.6 °F 80% 29.86 in 5.0 mi West 21.9 mph - N/A Snow Light Snow
11:15 AM 23.0 °F 8.0 °F 17.6 °F 80% 29.87 in 10.0 mi West 20.7 mph 33.4 mph N/A   Overcast
11:18 AM 23.0 °F 6.9 °F 17.6 °F 80% 29.87 in 10.0 mi West 24.2 mph 31.1 mph N/A Snow Light Snow
11:55 AM 22.8 °F 6.0 °F 15.8 °F 74% 29.88 in 10.0 mi West 26.5 mph 35.7 mph 0.00 in   Mostly Cloudy
12:55 PM 22.8 °F 5.7 °F 13.8 °F 68% 29.88 in 10.0 mi West 27.6 mph 40.3 mph N/A   Overcast
1:55 PM 22.8 °F 5.2 °F 14.0 °F 69% 29.89 in 10.0 mi West 29.9 mph 39.1 mph 0.00 in   Overcast
2:33 PM 23.0 °F 7.2 °F 14.0 °F 68% 29.89 in 10.0 mi West 23.0 mph 34.5 mph N/A   Overcast
2:37 PM 23.0 °F 6.9 °F 14.0 °F 68% 29.89 in 10.0 mi WNW 24.2 mph 34.5 mph N/A   Overcast
2:46 PM 23.0 °F 6.9 °F 14.0 °F 68% 29.89 in 10.0 mi West 24.2 mph 33.4 mph N/A   Overcast
2:55 PM 21.9 °F 5.1 °F 12.7 °F 68% 29.90 in 10.0 mi WNW 25.3 mph 34.5 mph N/A   Overcast
3:45 PM 21.2 °F 5.2 °F 14.0 °F 74% 29.90 in 10.0 mi West 21.9 mph 29.9 mph N/A Snow Light Snow
3:55 PM 21.0 °F 6.2 °F 14.0 °F 74% 29.91 in 10.0 mi WNW 18.4 mph - 0.00 in Snow Light Snow
4:55 PM 20.1 °F 5.0 °F 15.6 °F 83% 29.91 in 1.5 mi WNW 18.4 mph - 0.00 in Snow Light Snow
5:55 PM 17.8 °F 0.3 °F 10.9 °F 75% 29.95 in 10.0 mi West 23.0 mph 27.6 mph 0.00 in Snow Light Snow
5:59 PM 17.6 °F -0.6 °F 10.4 °F 73% 29.95 in 10.0 mi West 25.3 mph 31.1 mph N/A   Overcast
6:05 PM 17.6 °F -0.6 °F 10.4 °F 73% 29.95 in 10.0 mi West 25.3 mph 31.1 mph N/A   Overcast
6:26 PM 17.6 °F 0.1 °F 10.4 °F 73% 29.97 in 10.0 mi WNW 23.0 mph - N/A Snow Light Snow
6:32 PM 17.6 °F 0.9 °F 12.2 °F 79% 29.97 in 4.0 mi WNW 20.7 mph 27.6 mph N/A Snow Light Snow
6:39 PM 15.8 °F -1.9 °F 12.2 °F 86% 29.98 in 2.0 mi West 21.9 mph 29.9 mph N/A Snow Light Snow
6:43 PM 15.8 °F -2.3 °F 10.4 °F 79% 29.98 in 2.5 mi West 23.0 mph 29.9 mph N/A Snow Light Snow
6:44 PM 15.8 °F -2.3 °F 10.4 °F 79% 29.98 in 3.0 mi West 23.0 mph 29.9 mph N/A Snow Light Snow
6:55 PM 16.0 °F -2.1 °F 10.8 °F 80% 29.98 in 5.0 mi West 23.0 mph - 0.00 in Snow Light Snow
6:56 PM 15.8 °F -1.5 °F 10.4 °F 79% 29.99 in 4.0 mi West 20.7 mph 27.6 mph N/A Snow Light Snow
6:59 PM 15.8 °F -3.4 °F 12.2 °F 86% 29.99 in 2.5 mi WNW 26.5 mph 33.4 mph N/A Snow Light Snow
7:05 PM 15.8 °F -1.9 °F 10.4 °F 79% 29.99 in 3.0 mi West 21.9 mph 33.4 mph N/A Snow Light Snow
7:08 PM 15.8 °F 0.3 °F 10.4 °F 79% 30.00 in 5.0 mi West 16.1 mph 33.4 mph N/A Snow Light Snow
7:55 PM 15.8 °F -2.3 °F 6.8 °F 68% 30.01 in 10.0 mi West 23.0 mph 31.1 mph N/A   Mostly Cloudy
7:57 PM 14.0 °F -4.7 °F 6.8 °F 73% 30.01 in 10.0 mi West 23.0 mph 31.1 mph N/A   Mostly Cloudy
8:23 PM 14.0 °F -3.9 °F 6.8 °F 73% 30.02 in 10.0 mi WNW 20.7 mph 31.1 mph N/A Snow Light Snow
8:44 PM 14.0 °F -5.5 °F 10.4 °F 86% 30.02 in 4.0 mi WNW 25.3 mph 31.1 mph N/A Snow Light Snow
8:55 PM 14.0 °F -3.9 °F 8.6 °F 79% 30.03 in 4.0 mi WNW 20.7 mph 31.1 mph N/A Snow Light Snow
9:05 PM 14.0 °F -4.7 °F 6.8 °F 73% 30.03 in 10.0 mi WNW 23.0 mph 31.1 mph N/A   Overcast
9:23 PM 12.2 °F -7.9 °F 5.0 °F 73% 30.03 in 10.0 mi WNW 25.3 mph 34.5 mph N/A   Mostly Cloudy
9:31 PM 12.2 °F -7.1 °F 5.0 °F 73% 30.04 in 10.0 mi WNW 23.0 mph 31.1 mph N/A Snow Light Snow
9:43 PM 12.2 °F -7.5 °F 6.8 °F 79% 30.04 in 10.0 mi WNW 24.2 mph 29.9 mph N/A   Mostly Cloudy
9:55 PM 12.4 °F -5.6 °F 5.2 °F 73% 30.05 in 10.0 mi WNW 19.6 mph - 0.00 in   Overcast
9:57 PM 12.2 °F -6.7 °F 5.0 °F 73% 30.05 in 10.0 mi WNW 21.9 mph - N/A Snow Light Snow
10:15 PM 12.2 °F -6.7 °F 6.8 °F 79% 30.06 in 6.0 mi WNW 21.9 mph 35.7 mph N/A Snow Light Snow
10:17 PM 12.2 °F -6.7 °F 6.8 °F 79% 30.06 in 4.0 mi WNW 21.9 mph 35.7 mph N/A Snow Light Snow
10:20 PM 12.2 °F -6.7 °F 8.6 °F 85% 30.06 in 3.0 mi NW 21.9 mph 35.7 mph N/A Snow Light Snow
10:21 PM 12.2 °F -6.7 °F 8.6 °F 85% 30.07 in 3.0 mi WNW 21.9 mph 34.5 mph N/A Snow Light Snow
10:31 PM 10.4 °F -9.1 °F 3.2 °F 73% 30.07 in 5.0 mi NW 21.9 mph 32.2 mph N/A Snow Light Snow
10:55 PM 10.6 °F -8.8 °F 5.5 °F 80% 30.08 in 9.0 mi WNW 21.9 mph 31.1 mph 0.00 in Snow Light Snow
11:02 PM 10.4 °F -9.9 °F 3.2 °F 73% 30.09 in 10.0 mi WNW 24.2 mph 32.2 mph N/A Snow Light Snow
11:03 PM 10.4 °F -9.9 °F 3.2 °F 73% 30.09 in 10.0 mi WNW 24.2 mph 32.2 mph N/A   Scattered Clouds
11:08 PM 10.4 °F -9.5 °F 3.2 °F 73% 30.09 in 10.0 mi NW 23.0 mph 29.9 mph N/A   Light Freezing Rain
11:18 PM 8.6 °F -10.5 °F 5.0 °F 85% 30.10 in 10.0 mi NW 19.6 mph 29.9 mph N/A   Partly Cloudy
11:30 PM 8.6 °F -11.4 °F 3.2 °F 79% 30.10 in 10.0 mi WNW 21.9 mph 26.5 mph N/A   Light Freezing Rain
11:42 PM 8.6 °F -11.4 °F 3.2 °F 79% 30.11 in 10.0 mi WNW 21.9 mph 33.4 mph N/A   Mostly Cloudy
11:53 PM 8.6 °F -11.0 °F 1.4 °F 73% 30.11 in 9.0 mi WNW 20.7 mph 33.4 mph N/A   Mostly Cloudy
11:55 PM 9.0 °F -10.5 °F 2.8 °F 76% 30.12 in 8.0 mi WNW 20.7 mph 33.4 mph 0.00 in Snow Light Snow